V A Hospital, New Jersey
Current Conditions -  °F | °C
As of 8:51 AM on Monday 20 Oct 2014 (Local Time) from KEWR Reporting Station
Broken Clouds Broken Clouds  
Wind Chill: 40°   Ceiling: 25000
Heat Index: 44°   Visibility: 10mi
Dew Point: 31°   Wind: 7mph
Humidity: 60%   Direction: 220°SW
Pressure: 30.13"   Gusts: NA
Location:  40.7556°N, 74.2185°W
Report Text: KEWR 201251Z 22006KT 10SM FEW150 BKN250 07/M01 A3013 RMK AO2 SLP203 T00671006 $
Loading
Personal Weather Stations






























Interactive Weather Map
Tropical Storm Tracking
New forecast layout! Learn more

10-Day Weather Forecast

Advertisements
Track Severe Weather on mobile